• Join FlightAware (Why Join?)
  • Login
  • US Flag 
04:45AM EDT


 

Airport Tracker/Info


-or-


 

Live Flight TrackerFlight Track Log ✈ EJA929 ✈ 23-Jun-2013 ✈ KHPN - KLAS

Flight Track Log - Related Links

Times and Time Zones

All times are in EDT time to prevent confusion due to time zone crossing. See the EJA929 flight status page for this flight to view local times or setup timezone preferences in your user account.

Time Position Orientation Groundspeed Altitude Reporting Facility
EDT Latitude Longitude Course Direction KTS MPH feet Rate Location/Type
01:13PM 41.0500 -73.7667 255° West 220 253 4,300  Level New York TRACON
01:14PM 41.0333 -73.8500 255° West 258 297 6,400 2,400 Climbing New York TRACON
01:15PM 41.0167 -73.9500 258° West 265 305 9,200 2,340 Climbing New York TRACON
01:16PM 41.0000 -74.0500 258° West 290 334 11,100 1,620 Climbing New York TRACON
01:18PM 40.9728 -74.2558 260° West 381 438 13,500 1,740 Climbing New York Center
01:19PM 40.9500 -74.3867 257° West 406 467 15,600 1,740 Climbing New York Center
01:20PM 40.9242 -74.5500 258° West 413 475 17,000 660 Climbing New York Center
01:21PM 40.9072 -74.6864 261° West 413 475 17,000 420 Level New York Center
01:22PM 40.8806 -74.8550 258° West 424 488 17,900 1,140 Climbing New York Center
01:23PM 40.8614 -74.9881 259° West 429 494 19,400 1,620 Climbing New York Center
01:24PM 40.8392 -75.1350 259° West 418 481 21,100 1,500 Climbing New York Center
01:25PM 40.8144 -75.2950 259° West 418 481 22,400 1,020 Climbing New York Center
01:26PM 40.7947 -75.4281 259° West 418 481 23,200 900 Climbing New York Center
01:27PM 40.7681 -75.5769 257° West 418 481 24,200 960 Climbing New York Center
01:28PM 40.7450 -75.7289 259° West 423 487 25,200 1,020 Climbing New York Center
01:29PM 40.7239 -75.8806 260° West 428 493 26,300 960 Climbing New York Center
01:30PM 40.6983 -76.0375 258° West 428 493 27,200 960 Climbing New York Center
01:31PM 40.6725 -76.1914 258° West 433 498 28,300 1,020 Climbing New York Center
01:32PM 40.6756 -76.3506 272° West 438 504 29,300 960 Climbing New York Center
01:33PM 40.6928 -76.5161 278° West 443 510 30,300 960 Climbing New York Center
01:34PM 40.7097 -76.6792 278° West 448 516 31,300 960 Climbing New York Center
01:35PM 40.7281 -76.8506 278° West 458 527 32,300 960 Climbing New York Center
01:36PM 40.7442 -77.0217 277° West 474 545 33,300 960 Climbing New York Center
01:37PM 40.7597 -77.1986 277° West 479 551 34,300 1,020 Climbing New York Center
01:39PM 40.7942 -77.5522 277° West 491 565 36,300 1,020 Climbing Cleveland Center
01:40PM 40.8092 -77.7300 276° West 491 565 37,300 840 Climbing Cleveland Center
01:41PM 40.8261 -77.9131 277° West 503 579 38,000 300 Climbing Cleveland Center
01:42PM 40.8428 -78.1019 277° West 508 585 38,000  Level Cleveland Center
01:43PM 40.8589 -78.2742 277° West 515 593 38,000  Level Cleveland Center
01:44PM 40.8772 -78.4714 277° West 534 615 38,000  Level Cleveland Center
01:45PM 40.8933 -78.6658 276° West 541 623 38,000  Level Cleveland Center
01:46PM 40.9089 -78.8606 276° West 541 623 38,000  Level Cleveland Center
01:47PM 40.9222 -79.0581 275° West 541 623 38,000  Level Cleveland Center
01:48PM 40.9372 -79.2556 276° West 536 617 38,000  Level Cleveland Center
01:49PM 40.9517 -79.4506 276° West 536 617 38,000  Level Cleveland Center
01:50PM 40.9681 -79.6456 276° West 536 617 38,000  Level Cleveland Center
01:51PM 40.9822 -79.8625 275° West 542 624 38,000  Level Cleveland Center
01:52PM 40.9958 -80.0578 275° West 542 624 38,000  Level Cleveland Center
01:53PM 41.0089 -80.2556 275° West 537 618 38,000  Level Cleveland Center
01:54PM 41.0219 -80.4511 275° West 537 618 38,000  Level Cleveland Center
01:56PM 41.0467 -80.8419 275° West 537 618 38,000  Level Cleveland Center
01:57PM 41.0586 -81.0375 275° West 537 618 38,000 -60 Level Cleveland Center
01:58PM 41.0658 -81.2331 273° West 537 618 37,900  Descending Cleveland Center
01:59PM 41.0753 -81.4094 274° West 537 618 38,000  Climbing Cleveland Center
02:00PM 41.0861 -81.6106 274° West 537 618 38,000  Level Cleveland Center
02:01PM 41.0967 -81.8092 274° West 543 625 38,000  Level Cleveland Center
02:02PM 41.1086 -82.0300 274° West 549 632 38,000  Level Cleveland Center
02:03PM 41.1183 -82.2258 274° West 549 632 38,000  Level Cleveland Center
02:04PM 41.1300 -82.4247 275° West 549 632 38,000  Level Cleveland Center
02:05PM 41.1369 -82.6233 273° West 549 632 38,000  Level Cleveland Center
02:06PM 41.1481 -82.8194 274° West 544 626 38,000  Level Cleveland Center
02:07PM 41.1564 -83.0211 273° West 544 626 38,000  Level Cleveland Center
02:08PM 41.1608 -83.2006 272° West 544 626 38,000  Level Cleveland Center
02:09PM 41.1686 -83.3994 273° West 550 633 38,000  Level Cleveland Center
02:10PM 41.1781 -83.6014 274° West 550 633 38,000  Level Cleveland Center
02:11PM 41.1850 -83.8031 273° West 556 640 38,000  Level Cleveland Center
02:11PM 41.1939 -83.9581 274° West 548 631 38,000  Level Chicago Center
02:12PM 41.2003 -84.1594 272° West 547 629 38,000  Level Chicago Center
02:14PM 41.2069 -84.3606 273° West 547 629 38,000  Level Chicago Center
02:15PM 41.2128 -84.5625 272° West 547 629 38,000  Level Chicago Center
02:16PM 41.2186 -84.8025 272° West 543 625 38,000  Level Chicago Center
02:17PM 41.2250 -85.0039 272° West 543 625 38,000  Level Chicago Center
02:18PM 41.2297 -85.2039 272° West 540 621 38,000  Level Chicago Center
02:19PM 41.2336 -85.4039 272° West 538 619 38,000  Level Chicago Center
02:20PM 41.2378 -85.6028 272° West 535 616 38,000  Level Chicago Center
02:21PM 41.2414 -85.8014 271° West 533 613 38,000  Level Chicago Center
02:22PM 41.2444 -85.9992 271° West 534 615 38,000  Level Chicago Center
02:23PM 41.2481 -86.1986 271° West 540 621 38,000  Level Chicago Center
02:24PM 41.2511 -86.4367 271° West 538 619 38,000  Level Chicago Center
02:25PM 41.2531 -86.6294 271° West 526 605 38,000  Level Chicago Center
02:26PM 41.2547 -86.8261 271° West 518 596 38,000  Level Chicago Center
02:27PM 41.2572 -87.0156 271° West 516 594 38,000  Level Chicago Center
02:28PM 41.2586 -87.2056 271° West 520 598 38,000  Level Chicago Center
02:29PM 41.2594 -87.3947 270° West 517 595 38,000  Level Chicago Center
02:30PM 41.2608 -87.6233 271° West 519 597 38,000  Level Chicago Center
02:31PM 41.2614 -87.8136 270° West 517 595 38,000  Level Chicago Center
02:32PM 41.2603 -88.0061 270° West 515 593 38,000  Level Chicago Center
02:33PM 41.2592 -88.2039 270° West 525 604 38,000  Level Chicago Center
02:34PM 41.2597 -88.3956 270° West 518 596 38,100 240 Climbing Chicago Center
02:35PM 41.2592 -88.5856 270° West 515 593 38,600 480 Climbing Chicago Center
02:36PM 41.2578 -88.7731 269° West 511 588 39,200 780 Climbing Chicago Center
02:37PM 41.2589 -88.9589 271° West 503 579 40,200 1,020 Climbing Chicago Center
02:38PM 41.2567 -89.1756 269° West 492 566 41,400 840 Climbing Chicago Center
02:39PM 41.2542 -89.3600 269° West 489 563 42,000 480 Climbing Chicago Center
02:40PM 41.2511 -89.5422 269° West 496 571 42,400 420 Climbing Chicago Center
02:41PM 41.2489 -89.7242 269° West 497 572 42,900 240 Climbing Chicago Center
02:42PM 41.2461 -89.9078 269° West 502 578 43,000  Climbing Chicago Center
02:43PM 41.2428 -90.0928 269° West 504 580 43,000  Level Chicago Center
02:44PM 41.2736 -90.3153 281° West 514 592 43,000  Level Chicago Center
02:46PM 41.2611 -90.5047 265° West 518 596 43,000  Level Chicago Center
02:47PM 41.2392 -90.6914 261° West 517 595 43,000  Level Chicago Center
02:48PM 41.2208 -90.8744 262° West 508 585 43,000  Level Chicago Center
02:49PM 41.2094 -91.0572 265° West 502 578 43,000  Level Chicago Center
02:50PM 41.1969 -91.2422 265° West 503 579 43,000  Level Chicago Center
02:51PM 41.1814 -91.4628 265° West 501 577 43,000  Level Chicago Center
02:52PM 41.1675 -91.6483 264° West 506 582 43,000  Level Chicago Center
02:53PM 41.1528 -91.8483 264° West 508 585 43,000  Level Chicago Center
02:54PM 41.1394 -92.0314 265° West 507 583 43,000  Level Chicago Center
02:55PM 41.1244 -92.2136 264° West 504 580 43,000  Level Chicago Center
02:56PM 41.1106 -92.3953 264° West 502 578 43,000  Level Chicago Center
02:57PM 41.0958 -92.5708 264° West 490 564 43,000  Level Chicago Center
02:58PM 41.0783 -92.7811 264° West 486 559 43,000  Level Chicago Center
02:59PM 41.0644 -92.9539 264° West 481 554 43,000  Level Chicago Center
03:00PM 41.0494 -93.1292 264° West 485 558 43,000  Level Chicago Center
03:01PM 41.0336 -93.3058 263° West 489 563 43,000 240 Level Chicago Center
03:02PM 41.0272 -93.5167 268° West 487 560 43,500 480 Climbing Chicago Center
03:03PM 41.0319 -93.6892 272° West 477 549 44,000 480 Climbing Chicago Center
03:04PM 41.0350 -93.8578 271° West 465 535 44,500 480 Climbing Chicago Center
03:05PM 41.0331 -94.0244 269° West 459 528 45,000 240 Climbing Chicago Center
03:06PM 41.0311 -94.1908 269° West 458 527 45,000  Level Chicago Center
03:07PM 41.0308 -94.3892 270° West 455 524 45,000  Level Chicago Center
03:09PM 41.0261 -94.6122 268° West 453 521 45,000  Level Minneapolis Center
03:10PM 41.0106 -94.7425 261° West 447 514 45,000  Level Minneapolis Center
03:11PM 40.9847 -94.9750 262° West 452 520 45,000  Level Minneapolis Center
03:12PM 40.9661 -95.1369 261° West 449 517 45,000  Level Minneapolis Center
03:13PM 40.9475 -95.3022 262° West 449 517 45,000  Level Minneapolis Center
03:14PM 40.9322 -95.4361 261° West 455 524 45,000  Level Minneapolis Center
03:15PM 40.9086 -95.6353 261° West 456 525 45,000  Level Minneapolis Center
03:16PM 40.8858 -95.8336 261° West 453 521 45,000  Level Minneapolis Center
03:17PM 40.8628 -96.0350 261° West 458 527 45,000  Level Minneapolis Center
03:18PM 40.8425 -96.2025 261° West 458 527 45,000  Level Minneapolis Center
03:19PM 40.8233 -96.3692 261° West 458 527 45,000  Level Minneapolis Center
03:20PM 40.8025 -96.5356 261° West 457 526 45,000  Level Minneapolis Center
03:21PM 40.7822 -96.7008 261° West 457 526 45,000  Level Minneapolis Center
03:22PM 40.7617 -96.8675 261° West 458 527 45,000  Level Minneapolis Center
03:23PM 40.7408 -97.0336 261° West 459 528 45,000  Level Minneapolis Center
03:24PM 40.7186 -97.2003 260° West 461 531 45,000  Level Minneapolis Center
03:25PM 40.6917 -97.4089 260° West 465 535 45,000  Level Minneapolis Center
03:27PM 40.6692 -97.5756 260° West 463 533 45,000  Level Minneapolis Center
03:28PM 40.6475 -97.7439 260° West 464 534 45,000  Level Minneapolis Center
03:29PM 40.6247 -97.9092 260° West 460 529 45,000  Level Minneapolis Center
03:30PM 40.6028 -98.0756 260° West 460 529 45,000  Level Minneapolis Center
03:31PM 40.5797 -98.2400 260° West 457 526 45,000  Level Minneapolis Center
03:32PM 40.5564 -98.4056 260° West 457 526 45,000  Level Minneapolis Center
03:33PM 40.5333 -98.5733 260° West 461 531 45,000  Level Minneapolis Center
03:34PM 40.5047 -98.7739 259° West 462 532 45,000  Level Minneapolis Center
03:35PM 40.4806 -98.9417 259° West 463 533 45,000  Level Minneapolis Center
03:36PM 40.4558 -99.1100 259° West 466 536 45,000  Level Minneapolis Center
03:37PM 40.4319 -99.2792 260° West 468 539 45,000  Level Minneapolis Center
03:38PM 40.4064 -99.4469 259° West 468 539 45,000  Level Minneapolis Center
03:39PM 40.3822 -99.6153 259° West 468 539 45,000  Level Minneapolis Center
03:40PM 40.3567 -99.7806 259° West 464 534 45,000  Level Minneapolis Center
03:41PM 40.3278 -99.9742 259° West 460 529 45,000  Level Denver Center
03:42PM 40.3025 -100.1303 258° West 457 526 45,000 -120 Level Denver Center
03:43PM 40.2739 -100.3131 258° West 458 527 44,800 -720 Descending Denver Center
03:44PM 40.2478 -100.4747 258° West 470 541 43,500 -1,500 Descending Denver Center
03:45PM 40.2181 -100.6653 259° West 476 548 41,700 -1,620 Descending Denver Center
03:46PM 40.1919 -100.8272 258° West 474 545 40,300 -840 Descending Denver Center
03:47PM 40.1617 -101.0147 258° West 471 542 40,000 -180 Descending Denver Center
03:48PM 40.1347 -101.1761 258° West 473 544 40,000  Level Denver Center
03:49PM 40.1083 -101.3369 258° West 472 543 40,000  Level Denver Center
03:50PM 40.0769 -101.5242 258° West 472 543 40,000  Level Denver Center
03:51PM 40.0500 -101.6825 258° West 469 540 40,000  Level Denver Center
03:52PM 40.0175 -101.8672 257° West 468 539 40,000  Level Denver Center
03:53PM 39.9908 -102.0264 258° West 468 539 40,000  Level Denver Center
03:54PM 39.9583 -102.2117 257° West 470 541 40,000  Level Denver Center
03:55PM 39.9306 -102.3697 257° West 467 537 40,000  Level Denver Center
03:57PM 39.8978 -102.5542 257° West 469 540 40,000  Level Denver Center
03:58PM 39.8675 -102.7217 257° West 467 537 40,000  Level Denver Center
03:59PM 39.8372 -102.8858 257° West 467 537 40,000  Level Denver Center
04:00PM 39.8072 -103.0497 257° West 467 537 40,000  Level Denver Center
04:01PM 39.7769 -103.2125 256° West 464 534 40,000  Level Denver Center
04:02PM 39.7472 -103.3764 257° West 466 536 40,000  Level Denver Center
04:03PM 39.7167 -103.5406 256° West 468 539 40,000  Level Denver Center
04:04PM 39.6797 -103.7350 256° West 465 535 40,000  Level Denver Center
04:05PM 39.6494 -103.9011 257° West 465 535 40,000  Level Denver Center
04:06PM 39.6175 -104.0631 256° West 459 528 40,000  Level Denver Center
04:07PM 39.5858 -104.2269 256° West 469 540 40,000  Level Denver Center
04:08PM 39.5542 -104.3886 256° West 462 532 40,000  Level Denver Center
04:09PM 39.5222 -104.5489 256° West 456 525 40,000  Level Denver Center
04:10PM 39.4856 -104.7161 254° West 476 548 40,000  Level Denver Center
04:11PM 39.4553 -104.8806 257° West 453 521 40,000  Level Denver Center
04:12PM 39.4228 -105.0431 256° West 467 537 40,000  Level Denver Center
04:13PM 39.3892 -105.2058 255° West 467 537 40,000  Level Denver Center
04:14PM 39.3500 -105.3989 255° West 469 540 40,000  Level Denver Center
04:15PM 39.3186 -105.5556 256° West 446 513 40,000  Level Denver Center
04:16PM 39.2858 -105.7139 255° West 454 522 40,000  Level Denver Center
04:17PM 39.2517 -105.8728 255° West 460 529 40,000  Level Denver Center
04:18PM 39.2189 -106.0322 255° West 460 529 40,000  Level Denver Center
04:19PM 39.1833 -106.1969 254° West 458 527 40,000  Level Denver Center
04:20PM 39.1453 -106.3747 255° West 461 531 40,000  Level Denver Center
04:21PM 39.1119 -106.5267 254° West 461 531 40,000  Level Denver Center
04:22PM 39.0733 -106.7042 254° West 460 529 40,000  Level Denver Center
04:23PM 39.0392 -106.8564 254° West 461 531 40,000  Level Denver Center
04:24PM 39.0053 -107.0078 254° West 461 531 40,000  Level Denver Center
04:25PM 38.9661 -107.1867 254° West 465 535 40,000  Level Denver Center
04:26PM 38.9317 -107.3392 254° West 464 534 40,000  Level Denver Center
04:27PM 38.8908 -107.5164 254° West 463 533 40,000  Level Denver Center
04:28PM 38.8569 -107.6658 254° West 455 524 40,000  Level Denver Center
04:29PM 38.8158 -107.8442 254° West 464 534 40,000  Level Denver Center
04:31PM 38.7814 -107.9967 254° West 465 535 40,000  Level Denver Center
04:32PM 38.7464 -108.1481 254° West 462 532 40,000  Level Denver Center
04:33PM 38.7042 -108.3261 253° West 465 535 40,000  Level Denver Center
04:34PM 38.6686 -108.4789 253° West 466 536 40,000  Level Denver Center
04:35PM 38.6267 -108.6558 253° West 464 534 40,000  Level Denver Center
04:36PM 38.5903 -108.8097 253° West 470 541 40,000  Level Denver Center
04:37PM 38.5475 -108.9881 253° West 470 541 40,000  Level Denver Center
04:38PM 38.5103 -109.1397 253° West 469 540 40,000  Level Denver Center
04:39PM 38.4733 -109.2950 253° West 474 545 40,000  Level Denver Center
04:40PM 38.4292 -109.4722 252° West 471 542 40,000  Level Denver Center
04:41PM 38.3914 -109.6233 252° West 467 537 40,000  Level Denver Center
04:42PM 38.3464 -109.8014 252° West 472 543 40,000  Level Denver Center
04:43PM 38.3092 -109.9542 253° West 470 541 40,000  Level Denver Center
04:44PM 38.2625 -110.1322 252° West 475 547 40,000  Level Denver Center
04:45PM 38.2172 -110.2544 245° Southwest 476 548 40,000  Level Salt Lake Center
04:46PM 38.1500 -110.4200 243° Southwest 473 544 40,000 -300 Level Salt Lake Center
04:47PM 38.0933 -110.5600 243° Southwest 468 539 39,400 -1,080 Descending Salt Lake Center
04:48PM 38.0250 -110.7208 242° Southwest 464 534 37,700 -1,680 Descending Denver Center
04:49PM 37.9547 -110.8917 242° Southwest 469 540 35,800 -1,800 Descending Denver Center
04:50PM 37.9064 -111.0108 243° Southwest 473 544 34,200 -1,860 Descending Salt Lake Center
04:51PM 37.8444 -111.1619 243° Southwest 481 554 32,200 -1,980 Descending Salt Lake Center
04:52PM 37.7822 -111.3125 242° Southwest 482 555 30,200 -1,080 Descending Salt Lake Center
04:53PM 37.7064 -111.4947 242° Southwest 487 560 30,000 -120 Descending Salt Lake Center
04:54PM 37.6428 -111.6444 242° Southwest 485 558 30,000  Level Salt Lake Center
04:55PM 37.5800 -111.7953 242° Southwest 486 559 30,000  Level Salt Lake Center
04:56PM 37.5150 -111.9467 242° Southwest 489 563 30,000  Level Salt Lake Center
04:57PM 37.4506 -112.0981 242° Southwest 489 563 30,000 -540 Level Salt Lake Center
04:58PM 37.3967 -112.2206 241° Southwest 493 567 29,000 -1,320 Descending Los Angeles Center
04:59PM 37.3325 -112.3706 242° Southwest 486 559 27,600 -1,740 Descending Los Angeles Center
05:00PM 37.2561 -112.5461 241° Southwest 476 548 25,500 -1,800 Descending Los Angeles Center
05:01PM 37.1928 -112.6908 241° Southwest 470 541 24,000 -780 Descending Los Angeles Center
05:02PM 37.1314 -112.8325 242° Southwest 460 529 24,000  Level Los Angeles Center
05:03PM 37.0689 -112.9742 241° Southwest 461 531 24,000  Level Los Angeles Center
05:04PM 37.0067 -113.1161 241° Southwest 463 533 24,000  Level Los Angeles Center
05:05PM 36.9431 -113.2578 241° Southwest 466 536 24,000  Level Los Angeles Center
05:06PM 36.8817 -113.3997 242° Southwest 464 534 24,000  Level Los Angeles Center
05:07PM 36.8053 -113.5689 241° Southwest 466 536 24,000  Level Los Angeles Center
05:08PM 36.7425 -113.7108 241° Southwest 467 537 24,000 -600 Level Los Angeles Center
05:09PM 36.6792 -113.8517 241° Southwest 466 536 22,800 -1,800 Descending Los Angeles Center
05:10PM 36.6183 -113.9897 241° Southwest 457 526 20,400 -2,280 Descending Los Angeles Center
05:12PM 36.5572 -114.1211 240° Southwest 442 509 18,200 -2,400 Descending Los Angeles Center
05:12PM 36.5108 -114.2283 242° Southwest 445 512 16,200 -2,460 Descending Los Angeles Center
05:13PM 36.4586 -114.3428 240° Southwest 420 483 14,200 -2,040 Descending Los Angeles Center
05:14PM 36.4086 -114.4483 240° Southwest 352 405 12,300 -1,140 Descending Los Angeles Center
05:15PM 36.3411 -114.4953 209° Southwest 272 313 12,000 -240 Descending Los Angeles Center
05:16PM 36.3158 -114.4989 187° South 264 304 12,000 -840 Level Los Angeles Center
05:16PM 36.2756 -114.5122 195° South 242 278 11,200 -1,260 Descending Los Angeles Center
05:17PM 36.2525 -114.5228 200° South 242 278 10,700 -1,200 Descending Los Angeles Center
05:17PM 36.2250 -114.5667 232° Southwest 242 278 10,000 -1,260 Descending Los Angeles Center
05:18PM 36.1997 -114.5975 225° Southwest 234 269 9,400 -1,200 Descending Los Angeles Center
05:19PM 36.1672 -114.6506 233° Southwest 240 276 8,200 -1,500 Descending Los Angeles Center
05:20PM 36.1494 -114.7489 257° West 244 281 6,400 -1,020 Descending Los Angeles Center
05:21PM 36.1389 -114.8467 262° West 242 278 6,000 -180 Descending Los Angeles Center
05:22PM 36.1347 -114.9194 266° West 224 258 6,000 -540 Level Los Angeles Center
05:23PM 36.1358 -115.0153 271° West 220 253 4,800 -960 Descending Los Angeles Center
05:24PM 36.1381 -115.0758 273° West 161 185 3,900 -780 Descending Los Angeles Center
05:25PM 36.1375 -115.1081 269° West 179 206 3,400 -780 Descending Los Angeles Center
05:26PM 36.1125 -115.1511 234° Southwest 145 167 2,500 -900 Descending Los Angeles Center
05:28PM 36.0801 -115.1523 219° Southwest  Level Estimated
05:35PM 36.0801 -115.1523 219° Southwest  Level Estimated